sensor_id;sensor_type;location;lat;lon;timestamp;temperature;humidity
14079;DHT22;7115;50.150;8.568;2023-05-23T00:02:54;21.40;99.90
14079;DHT22;7115;50.150;8.568;2023-05-23T00:05:21;21.30;99.90
14079;DHT22;7115;50.150;8.568;2023-05-23T00:07:48;21.30;99.90
14079;DHT22;7115;50.150;8.568;2023-05-23T00:10:14;21.30;99.90
14079;DHT22;7115;50.150;8.568;2023-05-23T00:12:43;21.30;99.90
14079;DHT22;7115;50.150;8.568;2023-05-23T00:15:10;21.30;99.90
14079;DHT22;7115;50.150;8.568;2023-05-23T00:17:37;21.10;99.90
14079;DHT22;7115;50.150;8.568;2023-05-23T00:20:06;21.30;99.90
14079;DHT22;7115;50.150;8.568;2023-05-23T00:22:37;21.30;99.90
14079;DHT22;7115;50.150;8.568;2023-05-23T00:25:10;21.30;99.90
14079;DHT22;7115;50.150;8.568;2023-05-23T00:27:37;21.30;99.90
14079;DHT22;7115;50.150;8.568;2023-05-23T00:30:06;21.30;99.90
14079;DHT22;7115;50.150;8.568;2023-05-23T00:32:33;21.30;99.90
14079;DHT22;7115;50.150;8.568;2023-05-23T00:35:01;21.30;99.90
14079;DHT22;7115;50.150;8.568;2023-05-23T00:37:28;21.30;99.90
14079;DHT22;7115;50.150;8.568;2023-05-23T00:39:55;21.30;99.90
14079;DHT22;7115;50.150;8.568;2023-05-23T00:42:22;21.20;99.90
14079;DHT22;7115;50.150;8.568;2023-05-23T00:44:49;21.20;99.90
14079;DHT22;7115;50.150;8.568;2023-05-23T00:47:17;21.10;99.90
14079;DHT22;7115;50.150;8.568;2023-05-23T00:49:44;21.00;99.90
14079;DHT22;7115;50.150;8.568;2023-05-23T00:52:13;21.00;99.90
14079;DHT22;7115;50.150;8.568;2023-05-23T00:54:41;21.00;99.90
14079;DHT22;7115;50.150;8.568;2023-05-23T00:57:08;21.00;99.90
14079;DHT22;7115;50.150;8.568;2023-05-23T00:59:35;21.00;99.90
14079;DHT22;7115;50.150;8.568;2023-05-23T01:02:03;21.00;99.90
14079;DHT22;7115;50.150;8.568;2023-05-23T01:04:32;21.00;99.90
14079;DHT22;7115;50.150;8.568;2023-05-23T01:07:00;21.10;99.90
14079;DHT22;7115;50.150;8.568;2023-05-23T01:09:28;21.10;99.90
14079;DHT22;7115;50.150;8.568;2023-05-23T01:12:08;21.10;99.90
14079;DHT22;7115;50.150;8.568;2023-05-23T01:14:45;21.00;99.90
14079;DHT22;7115;50.150;8.568;2023-05-23T01:17:18;21.00;99.90
14079;DHT22;7115;50.150;8.568;2023-05-23T01:19:56;21.00;99.90
14079;DHT22;7115;50.150;8.568;2023-05-23T01:22:34;20.90;99.90
14079;DHT22;7115;50.150;8.568;2023-05-23T01:25:10;20.90;99.90
14079;DHT22;7115;50.150;8.568;2023-05-23T01:27:47;20.90;99.90
14079;DHT22;7115;50.150;8.568;2023-05-23T01:30:18;21.00;99.90
14079;DHT22;7115;50.150;8.568;2023-05-23T01:32:47;20.90;99.90
14079;DHT22;7115;50.150;8.568;2023-05-23T01:35:19;20.90;99.90
14079;DHT22;7115;50.150;8.568;2023-05-23T01:37:48;20.90;99.90
14079;DHT22;7115;50.150;8.568;2023-05-23T01:40:14;20.90;99.90
14079;DHT22;7115;50.150;8.568;2023-05-23T01:42:41;20.80;99.90
14079;DHT22;7115;50.150;8.568;2023-05-23T01:45:11;20.80;99.90
14079;DHT22;7115;50.150;8.568;2023-05-23T01:47:39;20.80;99.90
14079;DHT22;7115;50.150;8.568;2023-05-23T01:50:07;20.80;99.90
14079;DHT22;7115;50.150;8.568;2023-05-23T01:52:35;20.80;99.90
14079;DHT22;7115;50.150;8.568;2023-05-23T01:55:04;20.70;99.90
14079;DHT22;7115;50.150;8.568;2023-05-23T01:57:36;20.70;99.90
14079;DHT22;7115;50.150;8.568;2023-05-23T02:00:05;20.60;99.90
14079;DHT22;7115;50.150;8.568;2023-05-23T02:02:33;20.50;99.90
14079;DHT22;7115;50.150;8.568;2023-05-23T02:05:00;20.40;99.90
14079;DHT22;7115;50.150;8.568;2023-05-23T02:07:27;20.30;99.90
14079;DHT22;7115;50.150;8.568;2023-05-23T02:09:54;20.30;99.90
14079;DHT22;7115;50.150;8.568;2023-05-23T02:12:22;20.20;99.90
14079;DHT22;7115;50.150;8.568;2023-05-23T02:14:49;20.20;99.90
14079;DHT22;7115;50.150;8.568;2023-05-23T02:17:17;20.20;99.90
14079;DHT22;7115;50.150;8.568;2023-05-23T02:19:46;20.20;99.90
14079;DHT22;7115;50.150;8.568;2023-05-23T02:22:13;20.10;99.90
14079;DHT22;7115;50.150;8.568;2023-05-23T02:24:40;20.10;99.90
14079;DHT22;7115;50.150;8.568;2023-05-23T02:27:07;20.10;99.90
14079;DHT22;7115;50.150;8.568;2023-05-23T02:29:34;19.80;99.90
14079;DHT22;7115;50.150;8.568;2023-05-23T02:32:01;20.00;99.90
14079;DHT22;7115;50.150;8.568;2023-05-23T02:34:28;20.00;99.90
14079;DHT22;7115;50.150;8.568;2023-05-23T02:36:56;19.90;99.90
14079;DHT22;7115;50.150;8.568;2023-05-23T02:39:23;19.90;99.90
14079;DHT22;7115;50.150;8.568;2023-05-23T02:41:52;19.80;99.90
14079;DHT22;7115;50.150;8.568;2023-05-23T02:44:18;19.70;99.90
14079;DHT22;7115;50.150;8.568;2023-05-23T02:46:45;19.70;99.90
14079;DHT22;7115;50.150;8.568;2023-05-23T02:49:12;19.70;99.90
14079;DHT22;7115;50.150;8.568;2023-05-23T02:51:39;19.60;99.90
14079;DHT22;7115;50.150;8.568;2023-05-23T02:54:07;19.60;99.90
14079;DHT22;7115;50.150;8.568;2023-05-23T02:56:34;19.70;99.90
14079;DHT22;7115;50.150;8.568;2023-05-23T02:59:01;19.70;99.90
14079;DHT22;7115;50.150;8.568;2023-05-23T03:01:28;19.70;99.90
14079;DHT22;7115;50.150;8.568;2023-05-23T03:03:55;19.70;99.90
14079;DHT22;7115;50.150;8.568;2023-05-23T03:06:22;19.60;99.90
14079;DHT22;7115;50.150;8.568;2023-05-23T03:08:49;19.50;99.90
14079;DHT22;7115;50.150;8.568;2023-05-23T03:11:17;19.40;99.90
14079;DHT22;7115;50.150;8.568;2023-05-23T03:13:44;19.30;99.90
14079;DHT22;7115;50.150;8.568;2023-05-23T03:16:11;19.20;99.90
14079;DHT22;7115;50.150;8.568;2023-05-23T03:18:38;19.10;99.90
14079;DHT22;7115;50.150;8.568;2023-05-23T03:21:07;19.00;99.90
14079;DHT22;7115;50.150;8.568;2023-05-23T03:23:35;19.00;99.90
14079;DHT22;7115;50.150;8.568;2023-05-23T03:26:02;18.90;99.90
14079;DHT22;7115;50.150;8.568;2023-05-23T03:28:31;18.80;99.90
14079;DHT22;7115;50.150;8.568;2023-05-23T03:30:58;18.80;99.90
14079;DHT22;7115;50.150;8.568;2023-05-23T03:33:25;18.70;99.90
14079;DHT22;7115;50.150;8.568;2023-05-23T03:35:52;18.70;99.90
14079;DHT22;7115;50.150;8.568;2023-05-23T03:38:19;18.60;99.90
14079;DHT22;7115;50.150;8.568;2023-05-23T03:40:46;18.60;99.90
14079;DHT22;7115;50.150;8.568;2023-05-23T03:43:13;18.50;99.90
14079;DHT22;7115;50.150;8.568;2023-05-23T03:45:41;18.40;99.90
14079;DHT22;7115;50.150;8.568;2023-05-23T03:48:08;18.40;99.90
14079;DHT22;7115;50.150;8.568;2023-05-23T03:50:35;18.30;99.90
14079;DHT22;7115;50.150;8.568;2023-05-23T03:53:02;18.20;99.90
14079;DHT22;7115;50.150;8.568;2023-05-23T03:55:30;18.20;99.90
14079;DHT22;7115;50.150;8.568;2023-05-23T03:57:58;18.10;99.90
14079;DHT22;7115;50.150;8.568;2023-05-23T04:00:25;18.20;99.90
14079;DHT22;7115;50.150;8.568;2023-05-23T04:02:53;18.20;99.90
14079;DHT22;7115;50.150;8.568;2023-05-23T04:05:20;18.30;99.90
14079;DHT22;7115;50.150;8.568;2023-05-23T04:07:47;18.30;99.90
14079;DHT22;7115;50.150;8.568;2023-05-23T04:10:14;18.40;99.90
14079;DHT22;7115;50.150;8.568;2023-05-23T04:12:41;18.50;99.90
14079;DHT22;7115;50.150;8.568;2023-05-23T04:15:09;18.50;99.90
14079;DHT22;7115;50.150;8.568;2023-05-23T04:17:36;18.50;99.90
14079;DHT22;7115;50.150;8.568;2023-05-23T04:20:08;18.50;99.90
14079;DHT22;7115;50.150;8.568;2023-05-23T04:22:35;18.40;99.90
14079;DHT22;7115;50.150;8.568;2023-05-23T04:25:03;18.40;99.90
14079;DHT22;7115;50.150;8.568;2023-05-23T04:27:31;18.40;99.90
14079;DHT22;7115;50.150;8.568;2023-05-23T04:30:00;18.30;99.90
14079;DHT22;7115;50.150;8.568;2023-05-23T04:32:27;18.30;99.90
14079;DHT22;7115;50.150;8.568;2023-05-23T04:34:54;18.30;99.90
14079;DHT22;7115;50.150;8.568;2023-05-23T04:37:23;18.30;99.90
14079;DHT22;7115;50.150;8.568;2023-05-23T04:39:52;18.40;99.90
14079;DHT22;7115;50.150;8.568;2023-05-23T04:42:19;18.40;99.90
14079;DHT22;7115;50.150;8.568;2023-05-23T04:44:51;18.40;99.90
14079;DHT22;7115;50.150;8.568;2023-05-23T04:47:23;18.40;99.90
14079;DHT22;7115;50.150;8.568;2023-05-23T04:49:54;18.40;99.90
14079;DHT22;7115;50.150;8.568;2023-05-23T04:52:24;18.50;99.90
14079;DHT22;7115;50.150;8.568;2023-05-23T04:54:53;18.50;99.90
14079;DHT22;7115;50.150;8.568;2023-05-23T04:57:20;18.60;99.90
14079;DHT22;7115;50.150;8.568;2023-05-23T04:59:47;18.70;99.90
14079;DHT22;7115;50.150;8.568;2023-05-23T05:02:14;18.70;99.90
14079;DHT22;7115;50.150;8.568;2023-05-23T05:04:41;18.70;99.90
14079;DHT22;7115;50.150;8.568;2023-05-23T05:07:08;18.60;99.90
14079;DHT22;7115;50.150;8.568;2023-05-23T05:09:36;18.30;99.90
14079;DHT22;7115;50.150;8.568;2023-05-23T05:12:04;18.50;99.90
14079;DHT22;7115;50.150;8.568;2023-05-23T05:14:30;18.40;99.90
14079;DHT22;7115;50.150;8.568;2023-05-23T05:16:57;18.40;99.90
14079;DHT22;7115;50.150;8.568;2023-05-23T05:19:25;18.50;99.90
14079;DHT22;7115;50.150;8.568;2023-05-23T05:21:52;18.50;99.90
14079;DHT22;7115;50.150;8.568;2023-05-23T05:24:19;18.70;99.90
14079;DHT22;7115;50.150;8.568;2023-05-23T05:26:50;18.70;99.90
14079;DHT22;7115;50.150;8.568;2023-05-23T05:29:16;18.80;99.90
14079;DHT22;7115;50.150;8.568;2023-05-23T05:31:43;18.80;99.90
14079;DHT22;7115;50.150;8.568;2023-05-23T05:34:10;18.90;99.90
14079;DHT22;7115;50.150;8.568;2023-05-23T05:36:38;18.90;99.90
14079;DHT22;7115;50.150;8.568;2023-05-23T05:39:11;18.90;99.90
14079;DHT22;7115;50.150;8.568;2023-05-23T05:41:39;19.00;99.90
14079;DHT22;7115;50.150;8.568;2023-05-23T05:44:08;19.00;99.90
14079;DHT22;7115;50.150;8.568;2023-05-23T05:46:35;19.10;99.80
14079;DHT22;7115;50.150;8.568;2023-05-23T05:49:02;19.00;99.60
14079;DHT22;7115;50.150;8.568;2023-05-23T05:51:29;18.90;99.50
14079;DHT22;7115;50.150;8.568;2023-05-23T05:53:57;18.80;99.40
14079;DHT22;7115;50.150;8.568;2023-05-23T05:56:24;18.70;99.10
14079;DHT22;7115;50.150;8.568;2023-05-23T05:58:51;18.60;98.90
14079;DHT22;7115;50.150;8.568;2023-05-23T06:01:20;18.60;98.90
14079;DHT22;7115;50.150;8.568;2023-05-23T06:03:46;18.60;98.80
14079;DHT22;7115;50.150;8.568;2023-05-23T06:06:14;18.70;98.80
14079;DHT22;7115;50.150;8.568;2023-05-23T06:08:41;18.80;98.70
14079;DHT22;7115;50.150;8.568;2023-05-23T06:11:08;18.90;98.80
14079;DHT22;7115;50.150;8.568;2023-05-23T06:13:35;18.80;98.60
14079;DHT22;7115;50.150;8.568;2023-05-23T06:16:02;18.90;98.50
14079;DHT22;7115;50.150;8.568;2023-05-23T06:18:31;19.00;98.60
14079;DHT22;7115;50.150;8.568;2023-05-23T06:20:58;19.00;98.60
14079;DHT22;7115;50.150;8.568;2023-05-23T06:23:25;19.10;98.60
14079;DHT22;7115;50.150;8.568;2023-05-23T06:25:52;19.10;98.60
14079;DHT22;7115;50.150;8.568;2023-05-23T06:28:19;19.10;98.50
14079;DHT22;7115;50.150;8.568;2023-05-23T06:30:46;19.10;98.40
14079;DHT22;7115;50.150;8.568;2023-05-23T06:33:13;19.10;98.40
14079;DHT22;7115;50.150;8.568;2023-05-23T06:35:42;19.10;98.30
14079;DHT22;7115;50.150;8.568;2023-05-23T06:38:08;19.00;98.20
14079;DHT22;7115;50.150;8.568;2023-05-23T06:40:35;18.90;98.20
14079;DHT22;7115;50.150;8.568;2023-05-23T06:43:02;18.80;98.30
14079;DHT22;7115;50.150;8.568;2023-05-23T06:45:29;18.80;98.40
14079;DHT22;7115;50.150;8.568;2023-05-23T06:47:56;18.80;98.50
14079;DHT22;7115;50.150;8.568;2023-05-23T06:50:23;18.90;98.60
14079;DHT22;7115;50.150;8.568;2023-05-23T06:52:51;18.90;98.80
14079;DHT22;7115;50.150;8.568;2023-05-23T06:55:18;19.00;98.80
14079;DHT22;7115;50.150;8.568;2023-05-23T06:57:46;19.00;98.70
14079;DHT22;7115;50.150;8.568;2023-05-23T07:00:13;19.00;98.70
14079;DHT22;7115;50.150;8.568;2023-05-23T07:02:41;19.00;98.50
14079;DHT22;7115;50.150;8.568;2023-05-23T07:05:08;19.00;98.40
14079;DHT22;7115;50.150;8.568;2023-05-23T07:07:35;19.20;98.50
14079;DHT22;7115;50.150;8.568;2023-05-23T07:10:04;19.40;98.50
14079;DHT22;7115;50.150;8.568;2023-05-23T07:12:31;19.60;98.30
14079;DHT22;7115;50.150;8.568;2023-05-23T07:15:00;19.80;98.00
14079;DHT22;7115;50.150;8.568;2023-05-23T07:17:27;20.00;97.80
14079;DHT22;7115;50.150;8.568;2023-05-23T07:19:55;20.20;97.70
14079;DHT22;7115;50.150;8.568;2023-05-23T07:22:23;20.40;97.60
14079;DHT22;7115;50.150;8.568;2023-05-23T07:24:49;20.60;97.50
14079;DHT22;7115;50.150;8.568;2023-05-23T07:27:18;20.70;97.40
14079;DHT22;7115;50.150;8.568;2023-05-23T07:29:45;20.80;97.20
14079;DHT22;7115;50.150;8.568;2023-05-23T07:32:12;20.80;97.10
14079;DHT22;7115;50.150;8.568;2023-05-23T07:34:38;20.90;97.10
14079;DHT22;7115;50.150;8.568;2023-05-23T07:37:05;20.90;96.90
14079;DHT22;7115;50.150;8.568;2023-05-23T07:39:33;20.90;96.70
14079;DHT22;7115;50.150;8.568;2023-05-23T07:42:00;20.80;96.70
14079;DHT22;7115;50.150;8.568;2023-05-23T07:44:28;20.70;96.80
14079;DHT22;7115;50.150;8.568;2023-05-23T07:46:55;20.70;96.90
14079;DHT22;7115;50.150;8.568;2023-05-23T07:49:22;20.70;96.90
14079;DHT22;7115;50.150;8.568;2023-05-23T07:51:49;20.60;96.90
14079;DHT22;7115;50.150;8.568;2023-05-23T07:54:16;20.60;96.90
14079;DHT22;7115;50.150;8.568;2023-05-23T07:56:43;20.50;96.90
14079;DHT22;7115;50.150;8.568;2023-05-23T07:59:10;20.50;97.00
14079;DHT22;7115;50.150;8.568;2023-05-23T08:01:39;20.40;97.10
14079;DHT22;7115;50.150;8.568;2023-05-23T08:04:06;20.40;97.10
14079;DHT22;7115;50.150;8.568;2023-05-23T08:06:33;20.40;97.20
14079;DHT22;7115;50.150;8.568;2023-05-23T08:09:01;20.40;97.30
14079;DHT22;7115;50.150;8.568;2023-05-23T08:11:28;20.50;97.30
14079;DHT22;7115;50.150;8.568;2023-05-23T08:13:56;20.50;97.30
14079;DHT22;7115;50.150;8.568;2023-05-23T08:16:25;20.50;97.20
14079;DHT22;7115;50.150;8.568;2023-05-23T08:18:55;20.60;97.10
14079;DHT22;7115;50.150;8.568;2023-05-23T08:21:23;20.70;97.10
14079;DHT22;7115;50.150;8.568;2023-05-23T08:23:49;20.80;97.10
14079;DHT22;7115;50.150;8.568;2023-05-23T08:26:16;20.90;97.10
14079;DHT22;7115;50.150;8.568;2023-05-23T08:28:43;20.90;96.90
14079;DHT22;7115;50.150;8.568;2023-05-23T08:31:10;20.90;96.90
14079;DHT22;7115;50.150;8.568;2023-05-23T08:33:37;21.00;96.90
14079;DHT22;7115;50.150;8.568;2023-05-23T08:36:06;21.10;96.80
14079;DHT22;7115;50.150;8.568;2023-05-23T08:38:33;21.30;96.80
14079;DHT22;7115;50.150;8.568;2023-05-23T08:41:01;21.40;96.80
14079;DHT22;7115;50.150;8.568;2023-05-23T08:43:28;21.70;96.60
14079;DHT22;7115;50.150;8.568;2023-05-23T08:45:55;21.90;96.30
14079;DHT22;7115;50.150;8.568;2023-05-23T08:48:24;22.00;95.90
14079;DHT22;7115;50.150;8.568;2023-05-23T08:50:52;22.20;95.70
14079;DHT22;7115;50.150;8.568;2023-05-23T08:53:21;22.20;95.50
14079;DHT22;7115;50.150;8.568;2023-05-23T08:55:52;22.10;95.30
14079;DHT22;7115;50.150;8.568;2023-05-23T08:58:21;22.00;95.30
14079;DHT22;7115;50.150;8.568;2023-05-23T09:00:51;21.90;95.30
14079;DHT22;7115;50.150;8.568;2023-05-23T09:03:19;21.60;95.30
14079;DHT22;7115;50.150;8.568;2023-05-23T09:05:47;21.40;95.40
14079;DHT22;7115;50.150;8.568;2023-05-23T09:08:15;21.10;95.50
14079;DHT22;7115;50.150;8.568;2023-05-23T09:10:44;20.90;96.00
14079;DHT22;7115;50.150;8.568;2023-05-23T09:13:10;20.80;95.80
14079;DHT22;7115;50.150;8.568;2023-05-23T09:15:38;20.70;95.90
14079;DHT22;7115;50.150;8.568;2023-05-23T09:18:05;20.60;96.10
14079;DHT22;7115;50.150;8.568;2023-05-23T09:20:32;20.40;96.20
14079;DHT22;7115;50.150;8.568;2023-05-23T09:22:59;20.20;96.20
14079;DHT22;7115;50.150;8.568;2023-05-23T09:25:29;20.10;96.30
14079;DHT22;7115;50.150;8.568;2023-05-23T09:27:57;20.00;96.40
14079;DHT22;7115;50.150;8.568;2023-05-23T09:30:26;19.90;96.40
14079;DHT22;7115;50.150;8.568;2023-05-23T09:32:57;19.90;96.50
14079;DHT22;7115;50.150;8.568;2023-05-23T09:35:30;19.90;96.70
14079;DHT22;7115;50.150;8.568;2023-05-23T09:37:57;20.00;96.70
14079;DHT22;7115;50.150;8.568;2023-05-23T09:40:28;20.30;96.60
14079;DHT22;7115;50.150;8.568;2023-05-23T09:43:01;20.50;96.50
14079;DHT22;7115;50.150;8.568;2023-05-23T09:45:29;20.70;96.50
14079;DHT22;7115;50.150;8.568;2023-05-23T09:47:56;20.90;96.40
14079;DHT22;7115;50.150;8.568;2023-05-23T09:50:30;21.00;96.20
14079;DHT22;7115;50.150;8.568;2023-05-23T09:52:58;21.20;96.10
14079;DHT22;7115;50.150;8.568;2023-05-23T09:55:25;21.30;96.10
14079;DHT22;7115;50.150;8.568;2023-05-23T09:57:53;21.30;96.00
14079;DHT22;7115;50.150;8.568;2023-05-23T10:00:24;21.30;95.80
14079;DHT22;7115;50.150;8.568;2023-05-23T10:02:54;21.30;95.70
14079;DHT22;7115;50.150;8.568;2023-05-23T10:05:32;21.30;95.70
14079;DHT22;7115;50.150;8.568;2023-05-23T10:08:01;21.20;95.80
14079;DHT22;7115;50.150;8.568;2023-05-23T10:10:31;21.10;95.80
14079;DHT22;7115;50.150;8.568;2023-05-23T10:13:02;21.00;95.80
14079;DHT22;7115;50.150;8.568;2023-05-23T10:15:34;20.80;95.70
14079;DHT22;7115;50.150;8.568;2023-05-23T10:18:08;20.70;95.90
14079;DHT22;7115;50.150;8.568;2023-05-23T10:20:38;20.60;96.10
14079;DHT22;7115;50.150;8.568;2023-05-23T10:23:06;20.50;96.20
14079;DHT22;7115;50.150;8.568;2023-05-23T10:25:33;20.40;96.30
14079;DHT22;7115;50.150;8.568;2023-05-23T10:28:03;20.40;96.30
14079;DHT22;7115;50.150;8.568;2023-05-23T10:30:33;20.40;96.50
14079;DHT22;7115;50.150;8.568;2023-05-23T10:33:01;20.40;96.70
14079;DHT22;7115;50.150;8.568;2023-05-23T10:35:39;20.50;96.60
14079;DHT22;7115;50.150;8.568;2023-05-23T10:38:15;20.50;96.60
14079;DHT22;7115;50.150;8.568;2023-05-23T10:40:51;20.60;96.50
14079;DHT22;7115;50.150;8.568;2023-05-23T10:43:24;20.60;96.30
14079;DHT22;7115;50.150;8.568;2023-05-23T10:45:54;20.70;96.40
14079;DHT22;7115;50.150;8.568;2023-05-23T10:48:22;20.70;96.30
14079;DHT22;7115;50.150;8.568;2023-05-23T10:51:05;20.80;96.30
14079;DHT22;7115;50.150;8.568;2023-05-23T10:53:34;20.70;96.20
14079;DHT22;7115;50.150;8.568;2023-05-23T10:56:04;20.70;96.30
14079;DHT22;7115;50.150;8.568;2023-05-23T10:58:32;20.60;96.30
14079;DHT22;7115;50.150;8.568;2023-05-23T11:01:04;20.50;96.30
14079;DHT22;7115;50.150;8.568;2023-05-23T11:03:33;20.40;96.40
14079;DHT22;7115;50.150;8.568;2023-05-23T11:06:01;20.30;96.50
14079;DHT22;7115;50.150;8.568;2023-05-23T11:08:36;20.10;96.50
14079;DHT22;7115;50.150;8.568;2023-05-23T11:11:13;20.20;96.60
14079;DHT22;7115;50.150;8.568;2023-05-23T11:13:58;20.20;96.90
14079;DHT22;7115;50.150;8.568;2023-05-23T11:16:29;20.20;96.80
14079;DHT22;7115;50.150;8.568;2023-05-23T11:19:23;20.10;96.80
14079;DHT22;7115;50.150;8.568;2023-05-23T11:21:56;20.10;96.90
14079;DHT22;7115;50.150;8.568;2023-05-23T11:24:47;20.20;96.90
14079;DHT22;7115;50.150;8.568;2023-05-23T11:27:27;20.30;96.90
14079;DHT22;7115;50.150;8.568;2023-05-23T11:30:03;20.40;96.90
14079;DHT22;7115;50.150;8.568;2023-05-23T11:32:32;20.50;96.70
14079;DHT22;7115;50.150;8.568;2023-05-23T11:34:59;20.60;96.60
14079;DHT22;7115;50.150;8.568;2023-05-23T11:37:27;20.60;96.60
14079;DHT22;7115;50.150;8.568;2023-05-23T11:39:55;20.70;96.60
14079;DHT22;7115;50.150;8.568;2023-05-23T11:42:22;20.90;96.60
14079;DHT22;7115;50.150;8.568;2023-05-23T11:44:50;21.10;96.50
14079;DHT22;7115;50.150;8.568;2023-05-23T11:47:17;21.30;96.50
14079;DHT22;7115;50.150;8.568;2023-05-23T11:49:47;21.40;96.50
14079;DHT22;7115;50.150;8.568;2023-05-23T11:52:14;21.60;96.40
14079;DHT22;7115;50.150;8.568;2023-05-23T11:54:41;21.70;96.20
14079;DHT22;7115;50.150;8.568;2023-05-23T11:57:09;21.90;96.20
14079;DHT22;7115;50.150;8.568;2023-05-23T11:59:37;21.90;95.90
14079;DHT22;7115;50.150;8.568;2023-05-23T12:02:05;21.90;95.70
14079;DHT22;7115;50.150;8.568;2023-05-23T12:04:34;22.00;95.80
14079;DHT22;7115;50.150;8.568;2023-05-23T12:07:05;22.00;95.50
14079;DHT22;7115;50.150;8.568;2023-05-23T12:09:41;22.00;95.30
14079;DHT22;7115;50.150;8.568;2023-05-23T12:12:08;22.00;95.20
14079;DHT22;7115;50.150;8.568;2023-05-23T12:14:35;22.00;95.20
14079;DHT22;7115;50.150;8.568;2023-05-23T12:17:04;22.00;95.10
14079;DHT22;7115;50.150;8.568;2023-05-23T12:19:31;21.90;94.90
14079;DHT22;7115;50.150;8.568;2023-05-23T12:22:06;21.80;94.70
14079;DHT22;7115;50.150;8.568;2023-05-23T12:24:33;21.70;94.60
14079;DHT22;7115;50.150;8.568;2023-05-23T12:27:01;21.80;94.60
14079;DHT22;7115;50.150;8.568;2023-05-23T12:29:30;22.00;94.60
14079;DHT22;7115;50.150;8.568;2023-05-23T12:32:01;22.10;94.60
14079;DHT22;7115;50.150;8.568;2023-05-23T12:34:28;22.10;94.50
14079;DHT22;7115;50.150;8.568;2023-05-23T12:36:56;22.00;94.60
14079;DHT22;7115;50.150;8.568;2023-05-23T12:39:44;21.90;94.60
14079;DHT22;7115;50.150;8.568;2023-05-23T12:42:11;21.70;94.70
14079;DHT22;7115;50.150;8.568;2023-05-23T12:44:40;21.50;94.70
14079;DHT22;7115;50.150;8.568;2023-05-23T12:47:07;21.30;94.70
14079;DHT22;7115;50.150;8.568;2023-05-23T12:49:34;21.10;94.70
14079;DHT22;7115;50.150;8.568;2023-05-23T12:52:01;20.80;94.90
14079;DHT22;7115;50.150;8.568;2023-05-23T12:54:28;20.70;95.00
14079;DHT22;7115;50.150;8.568;2023-05-23T12:56:56;20.60;95.10
14079;DHT22;7115;50.150;8.568;2023-05-23T12:59:23;20.60;95.30
14079;DHT22;7115;50.150;8.568;2023-05-23T13:01:50;20.50;95.40
14079;DHT22;7115;50.150;8.568;2023-05-23T13:04:17;20.60;95.60
14079;DHT22;7115;50.150;8.568;2023-05-23T13:06:44;20.70;95.70
14079;DHT22;7115;50.150;8.568;2023-05-23T13:09:11;20.80;95.70
14079;DHT22;7115;50.150;8.568;2023-05-23T13:11:38;20.90;95.60
14079;DHT22;7115;50.150;8.568;2023-05-23T13:14:06;21.00;95.50
14079;DHT22;7115;50.150;8.568;2023-05-23T13:16:33;21.00;95.30
14079;DHT22;7115;50.150;8.568;2023-05-23T13:19:02;21.00;95.10
14079;DHT22;7115;50.150;8.568;2023-05-23T13:21:29;20.90;95.00
14079;DHT22;7115;50.150;8.568;2023-05-23T13:23:57;20.80;95.00
14079;DHT22;7115;50.150;8.568;2023-05-23T13:26:24;20.70;95.00
14079;DHT22;7115;50.150;8.568;2023-05-23T13:28:51;20.70;94.90
14079;DHT22;7115;50.150;8.568;2023-05-23T13:31:20;20.70;95.00
14079;DHT22;7115;50.150;8.568;2023-05-23T13:33:47;20.70;95.00
14079;DHT22;7115;50.150;8.568;2023-05-23T13:36:14;20.80;94.90
14079;DHT22;7115;50.150;8.568;2023-05-23T13:38:41;20.90;94.80
14079;DHT22;7115;50.150;8.568;2023-05-23T13:41:08;20.90;94.70
14079;DHT22;7115;50.150;8.568;2023-05-23T13:43:35;20.90;94.70
14079;DHT22;7115;50.150;8.568;2023-05-23T13:46:02;20.90;94.70
14079;DHT22;7115;50.150;8.568;2023-05-23T13:48:30;20.90;94.70
14079;DHT22;7115;50.150;8.568;2023-05-23T13:50:57;20.90;94.80
14079;DHT22;7115;50.150;8.568;2023-05-23T13:53:25;21.00;94.90
14079;DHT22;7115;50.150;8.568;2023-05-23T13:55:52;21.00;94.90
14079;DHT22;7115;50.150;8.568;2023-05-23T13:58:19;21.00;94.80
14079;DHT22;7115;50.150;8.568;2023-05-23T14:00:46;21.00;94.70
14079;DHT22;7115;50.150;8.568;2023-05-23T14:03:13;21.10;94.50
14079;DHT22;7115;50.150;8.568;2023-05-23T14:05:42;21.00;94.30
14079;DHT22;7115;50.150;8.568;2023-05-23T14:08:10;21.00;94.40
14079;DHT22;7115;50.150;8.568;2023-05-23T14:10:38;21.00;94.40
14079;DHT22;7115;50.150;8.568;2023-05-23T14:13:06;20.90;94.30
14079;DHT22;7115;50.150;8.568;2023-05-23T14:15:33;21.00;94.30
14079;DHT22;7115;50.150;8.568;2023-05-23T14:18:00;21.00;94.20
14079;DHT22;7115;50.150;8.568;2023-05-23T14:20:27;20.80;94.20
14079;DHT22;7115;50.150;8.568;2023-05-23T14:22:56;20.70;94.50
14079;DHT22;7115;50.150;8.568;2023-05-23T14:25:23;20.60;94.30
14079;DHT22;7115;50.150;8.568;2023-05-23T14:27:50;20.50;94.50
14079;DHT22;7115;50.150;8.568;2023-05-23T14:30:17;20.50;94.80
14079;DHT22;7115;50.150;8.568;2023-05-23T14:32:44;20.50;94.80
14079;DHT22;7115;50.150;8.568;2023-05-23T14:35:11;20.50;94.70
14079;DHT22;7115;50.150;8.568;2023-05-23T14:37:38;20.60;94.80
14079;DHT22;7115;50.150;8.568;2023-05-23T14:40:08;20.60;94.90
14079;DHT22;7115;50.150;8.568;2023-05-23T14:42:36;20.70;94.80
14079;DHT22;7115;50.150;8.568;2023-05-23T14:45:03;20.70;94.80
14079;DHT22;7115;50.150;8.568;2023-05-23T14:47:31;20.60;94.90
14079;DHT22;7115;50.150;8.568;2023-05-23T14:49:58;20.60;95.10
14079;DHT22;7115;50.150;8.568;2023-05-23T14:52:25;20.70;95.20
14079;DHT22;7115;50.150;8.568;2023-05-23T14:54:52;20.70;95.00
14079;DHT22;7115;50.150;8.568;2023-05-23T14:57:20;20.70;94.90
14079;DHT22;7115;50.150;8.568;2023-05-23T14:59:47;20.80;94.90
14079;DHT22;7115;50.150;8.568;2023-05-23T15:02:14;20.80;94.70
14079;DHT22;7115;50.150;8.568;2023-05-23T15:04:41;20.70;94.50
14079;DHT22;7115;50.150;8.568;2023-05-23T15:07:08;20.70;94.40
14079;DHT22;7115;50.150;8.568;2023-05-23T15:09:35;20.70;94.20
14079;DHT22;7115;50.150;8.568;2023-05-23T15:12:03;20.70;94.10
14079;DHT22;7115;50.150;8.568;2023-05-23T15:14:34;20.70;94.00
14079;DHT22;7115;50.150;8.568;2023-05-23T15:17:01;20.80;94.00
14079;DHT22;7115;50.150;8.568;2023-05-23T15:19:34;20.90;93.90
14079;DHT22;7115;50.150;8.568;2023-05-23T15:22:03;21.00;93.80
14079;DHT22;7115;50.150;8.568;2023-05-23T15:24:30;20.90;93.50
14079;DHT22;7115;50.150;8.568;2023-05-23T15:26:57;20.90;93.50
14079;DHT22;7115;50.150;8.568;2023-05-23T15:29:46;20.90;93.40
14079;DHT22;7115;50.150;8.568;2023-05-23T15:32:13;20.80;93.20
14079;DHT22;7115;50.150;8.568;2023-05-23T15:34:40;20.70;93.20
14079;DHT22;7115;50.150;8.568;2023-05-23T15:37:06;20.70;93.30
14079;DHT22;7115;50.150;8.568;2023-05-23T15:39:33;20.70;93.40
14079;DHT22;7115;50.150;8.568;2023-05-23T15:42:00;20.60;93.40
14079;DHT22;7115;50.150;8.568;2023-05-23T15:44:27;20.60;93.40
14079;DHT22;7115;50.150;8.568;2023-05-23T15:46:56;20.60;93.40
14079;DHT22;7115;50.150;8.568;2023-05-23T15:49:23;20.60;93.30
14079;DHT22;7115;50.150;8.568;2023-05-23T15:51:53;20.60;93.30
14079;DHT22;7115;50.150;8.568;2023-05-23T15:54:21;20.60;93.30